Time;durP1;ratioP1;P1;durP2;ratioP2;P2;SDS_P1;SDS_P2;PMS_P1;PMS_P2;Temp;Humidity;BMP_temperature;BMP_pressure;BME280_temperature;BME280_humidity;BME280_pressure;Samples;Min_cycle;Max_cycle;Signal;HPM_P1;HPM_P2
2022/08/31 00:04:39;;;;;;;10.40;5.75;;;;;;;14.93;94.95;99398.21;1698436;84;21248;-71
2022/08/31 00:07:07;;;;;;;7.33;4.80;;;;;;;14.96;95.37;99393.95;1682880;84;20967;-71
2022/08/31 00:09:35;;;;;;;8.90;5.92;;;;;;;14.99;95.08;99396.02;1674791;85;21523;-70
2022/08/31 00:12:03;;;;;;;13.22;5.97;;;;;;;15.00;95.26;99397.63;1691485;82;21567;-70
2022/08/31 00:14:30;;;;;;;9.65;5.47;;;;;;;15.03;95.33;99397.70;1686144;84;21026;-71
2022/08/31 00:16:56;;;;;;;9.30;5.20;;;;;;;15.00;94.91;99396.24;1675091;85;21138;-70
2022/08/31 00:19:23;;;;;;;12.85;5.22;;;;;;;14.95;94.75;99400.05;1690210;83;20884;-70
2022/08/31 00:21:50;;;;;;;10.38;5.67;;;;;;;14.90;94.70;99395.34;1697502;84;21034;-71
2022/08/31 00:24:17;;;;;;;12.23;6.00;;;;;;;14.83;94.79;99405.59;1697509;84;21560;-71
2022/08/31 00:26:43;;;;;;;9.58;5.60;;;;;;;14.73;95.00;99406.87;1692134;84;20851;-71
2022/08/31 00:29:11;;;;;;;11.45;5.08;;;;;;;14.68;95.20;99402.95;1694550;83;21775;-71
2022/08/31 00:31:38;;;;;;;9.78;5.65;;;;;;;14.62;95.55;99402.95;1698887;83;21573;-71
2022/08/31 00:34:05;;;;;;;10.48;5.53;;;;;;;14.57;95.84;99405.14;1692613;84;20889;-71
2022/08/31 00:36:32;;;;;;;10.45;5.67;;;;;;;14.50;96.17;99403.76;1692189;83;20927;-71
2022/08/31 00:38:59;;;;;;;11.10;5.20;;;;;;;14.48;96.64;99408.02;1689464;84;20985;-71
2022/08/31 00:41:28;;;;;;;13.53;5.72;;;;;;;14.44;96.82;99407.90;1710079;83;21241;-71
2022/08/31 00:44:00;;;;;;;12.25;4.70;;;;;;;14.40;96.67;99414.45;1680073;85;21475;-71
2022/08/31 00:46:31;;;;;;;9.20;5.17;;;;;;;14.36;96.80;99413.53;1684717;84;20924;-71
2022/08/31 00:49:09;;;;;;;18.20;6.60;;;;;;;14.35;97.22;99410.54;1684060;84;20970;-70
2022/08/31 00:51:39;;;;;;;11.78;5.72;;;;;;;14.30;97.40;99410.19;1688363;84;21486;-72
2022/08/31 00:54:06;;;;;;;10.03;5.30;;;;;;;14.27;97.40;99412.25;1678154;84;21101;-72
2022/08/31 00:56:34;;;;;;;11.38;5.30;;;;;;;14.23;97.51;99404.42;1679844;85;20932;-72
2022/08/31 00:59:01;;;;;;;8.78;5.37;;;;;;;14.24;97.93;99412.13;1665611;84;21054;-72
2022/08/31 01:01:29;;;;;;;8.75;5.67;;;;;;;14.25;98.11;99409.03;1686640;84;21022;-73
2022/08/31 01:03:57;;;;;;;10.35;5.03;;;;;;;14.26;98.10;99409.84;1685999;84;20899;-72
2022/08/31 01:06:25;;;;;;;8.90;5.37;;;;;;;14.27;98.01;99409.49;1687504;84;21234;-73
2022/08/31 01:08:53;;;;;;;8.45;5.35;;;;;;;14.27;97.83;99405.35;1684763;84;20924;-72
2022/08/31 01:11:20;;;;;;;9.25;5.50;;;;;;;14.27;98.09;99408.69;1636167;86;21025;-71
2022/08/31 01:13:47;;;;;;;8.25;5.15;;;;;;;14.28;98.53;99405.58;1695419;83;21384;-71
2022/08/31 01:16:29;;;;;;;13.95;5.62;;;;;;;14.31;98.40;99407.66;1681860;84;20900;-70
2022/08/31 01:18:56;;;;;;;10.45;5.05;;;;;;;14.30;98.67;99407.43;1699249;83;21243;-71
2022/08/31 01:21:38;;;;;;;12.68;5.28;;;;;;;14.31;98.50;99416.52;1690837;83;20848;-71
2022/08/31 01:24:05;;;;;;;8.18;4.95;;;;;;;14.26;98.18;99406.50;1681263;84;20911;-70
2022/08/31 01:26:32;;;;;;;12.23;5.78;;;;;;;14.23;98.64;99418.80;1691522;84;21497;-70
2022/08/31 01:29:02;;;;;;;9.18;5.17;;;;;;;14.22;100.00;99419.38;1675219;85;21074;-71
2022/08/31 01:31:37;;;;;;;14.40;6.08;;;;;;;14.27;100.00;99416.39;1698145;83;21327;-71
2022/08/31 01:34:04;;;;;;;11.12;5.78;;;;;;;14.33;100.00;99409.50;1701562;83;21493;-71
2022/08/31 01:36:32;;;;;;;8.20;5.42;;;;;;;14.37;100.00;99409.62;1688053;84;20951;-71
2022/08/31 01:42:56;;;;;;;8.00;5.45;;;;;;;14.31;100.00;99407.66;1683354;83;20892;-72
2022/08/31 01:45:23;;;;;;;12.82;6.12;;;;;;;14.22;100.00;99412.48;1685526;83;21142;-71
2022/08/31 01:47:50;;;;;;;8.60;5.35;;;;;;;14.20;100.00;99402.35;1685981;84;20939;-72
2022/08/31 01:50:16;;;;;;;11.38;5.92;;;;;;;14.23;100.00;99399.48;1681623;84;20869;-71
2022/08/31 01:52:43;;;;;;;12.68;6.40;;;;;;;14.23;100.00;99398.91;1690265;84;20928;-70
2022/08/31 01:55:10;;;;;;;8.73;5.20;;;;;;;14.29;100.00;99400.30;1685823;84;20948;-69
2022/08/31 01:57:37;;;;;;;7.42;5.22;;;;;;;14.37;100.00;99405.48;1690199;83;21234;-70
2022/08/31 02:00:13;;;;;;;13.78;5.83;;;;;;;14.37;100.00;99402.72;1663494;84;21011;-71
2022/08/31 02:02:43;;;;;;;9.13;5.50;;;;;;;14.37;100.00;99402.72;1677589;84;21498;-71
2022/08/31 02:05:13;;;;;;;13.13;5.80;;;;;;;14.37;100.00;99402.72;1689572;83;20908;-71
2022/08/31 02:07:40;;;;;;;11.15;5.78;;;;;;;14.38;100.00;99398.23;1692497;82;21012;-70
2022/08/31 02:10:08;;;;;;;13.50;5.95;;;;;;;14.40;100.00;99393.17;1683912;83;21098;-70
2022/08/31 02:12:34;;;;;;;10.68;5.87;;;;;;;14.43;100.00;99393.09;1693396;83;20970;-70
2022/08/31 02:15:03;;;;;;;11.43;5.92;;;;;;;14.42;100.00;99390.90;1700144;84;21066;-72
2022/08/31 02:17:30;;;;;;;11.38;5.92;;;;;;;14.42;100.00;99387.33;1685779;84;20995;-71
2022/08/31 02:19:57;;;;;;;8.73;5.15;;;;;;;14.42;100.00;99393.66;1683475;84;20935;-72
2022/08/31 02:22:23;;;;;;;10.93;5.97;;;;;;;14.38;100.00;99385.80;1683734;85;21884;-71
2022/08/31 02:24:52;;;;;;;9.30;6.15;;;;;;;14.33;100.00;99390.17;1689695;84;21129;-71
2022/08/31 02:27:19;;;;;;;10.82;5.65;;;;;;;14.30;100.00;99387.30;1683280;84;20944;-71
2022/08/31 02:29:47;;;;;;;13.08;5.55;;;;;;;14.30;100.00;99395.00;1682258;84;20971;-72
2022/08/31 02:32:13;;;;;;;17.17;6.17;;;;;;;14.28;100.00;99389.02;1695572;84;20934;-71
2022/08/31 02:34:43;;;;;;;11.38;5.67;;;;;;;14.25;100.00;99393.84;1705502;83;21065;-72
2022/08/31 02:37:11;;;;;;;9.40;5.97;;;;;;;14.23;100.00;99393.95;1689006;84;20951;-72
2022/08/31 02:39:37;;;;;;;14.78;5.87;;;;;;;14.20;100.00;99389.36;1680499;84;21494;-71
2022/08/31 02:42:05;;;;;;;13.25;6.72;;;;;;;14.20;100.00;99391.31;1682008;85;20968;-72
2022/08/31 02:44:35;;;;;;;12.18;6.00;;;;;;;14.20;100.00;99394.88;1687557;84;21522;-71
2022/08/31 02:47:02;;;;;;;11.35;5.42;;;;;;;14.19;100.00;99397.98;1687823;84;21192;-71
2022/08/31 02:49:33;;;;;;;9.40;5.50;;;;;;;14.17;100.00;99394.18;1680411;84;21412;-71
2022/08/31 02:52:00;;;;;;;8.18;5.50;;;;;;;14.13;100.00;99398.77;1685944;85;20935;-71
2022/08/31 02:54:27;;;;;;;8.93;5.85;;;;;;;14.10;100.00;99397.27;1683954;84;20880;-71
2022/08/31 02:56:54;;;;;;;36.38;6.67;;;;;;;14.07;100.00;99399.34;1688588;84;21003;-71
2022/08/31 02:59:20;;;;;;;10.60;5.45;;;;;;;14.03;100.00;99399.22;1688491;84;21179;-70
2022/08/31 03:01:51;;;;;;;10.40;5.78;;;;;;;13.98;100.00;99404.95;1667609;85;21035;-71
2022/08/31 03:04:17;;;;;;;10.93;6.17;;;;;;;13.96;100.00;99410.58;1683517;85;20903;-72
2022/08/31 03:06:46;;;;;;;13.88;6.03;;;;;;;13.92;100.00;99398.04;1682187;84;20947;-72
2022/08/31 03:09:14;;;;;;;19.70;6.75;;;;;;;13.91;100.00;99397.00;1679692;85;20864;-72
2022/08/31 03:11:42;;;;;;;13.95;5.67;;;;;;;13.92;100.00;99401.38;1686715;84;21947;-72
2022/08/31 03:14:09;;;;;;;10.50;5.70;;;;;;;13.97;100.00;99397.02;1690963;84;20986;-72
2022/08/31 03:16:39;;;;;;;14.25;6.10;;;;;;;14.00;100.00;99397.14;1696394;83;20983;-72
2022/08/31 03:19:08;;;;;;;17.37;6.08;;;;;;;14.00;100.00;99397.14;1689489;84;21408;-71
2022/08/31 03:21:35;;;;;;;12.20;6.30;;;;;;;14.02;100.00;99398.98;1675345;84;20900;-71
2022/08/31 03:24:02;;;;;;;10.35;6.05;;;;;;;14.05;100.00;99394.73;1680177;84;21130;-71
2022/08/31 03:26:29;;;;;;;14.90;5.53;;;;;;;14.04;100.00;99395.88;1687433;84;20939;-72
2022/08/31 03:28:56;;;;;;;10.03;5.55;;;;;;;14.06;100.00;99397.72;1677570;84;20909;-71
2022/08/31 03:31:26;;;;;;;53.40;6.72;;;;;;;14.04;100.00;99393.13;1682263;83;21585;-73
2022/08/31 03:33:53;;;;;;;13.68;5.72;;;;;;;14.01;100.00;99392.42;1678472;84;21000;-74
2022/08/31 03:36:19;;;;;;;13.78;5.42;;;;;;;13.98;100.00;99399.44;1679267;84;22127;-77
2022/08/31 03:38:47;;;;;;;11.80;5.28;;;;;;;13.97;100.00;99401.96;1706071;84;20926;-75
2022/08/31 03:41:15;;;;;;;29.50;6.17;;;;;;;13.97;100.00;99398.39;1704717;83;20954;-76
2022/08/31 03:43:42;;;;;;;14.70;5.45;;;;;;;13.95;100.00;99394.59;1679857;84;20994;-80
2022/08/31 03:46:09;;;;;;;15.03;5.30;;;;;;;13.97;100.00;99406.10;1696100;84;21569;-75
2022/08/31 03:48:36;;;;;;;10.65;6.08;;;;;;;13.99;100.00;99400.23;1680735;84;21118;-76
2022/08/31 03:51:03;;;;;;;16.60;6.20;;;;;;;14.05;100.00;99398.30;1688489;84;21600;-71
2022/08/31 03:53:34;;;;;;;8.98;6.03;;;;;;;14.13;100.00;99399.34;1674998;85;20956;-72
2022/08/31 03:56:02;;;;;;;7.90;5.03;;;;;;;14.20;100.00;99400.97;1687127;83;21003;-73
2022/08/31 03:58:31;;;;;;;12.25;5.53;;;;;;;14.23;100.00;99391.20;1694968;84;21026;-73
2022/08/31 04:00:58;;;;;;;19.95;5.78;;;;;;;14.25;100.00;99402.12;1688091;83;21115;-74
2022/08/31 04:03:28;;;;;;;15.32;5.65;;;;;;;14.29;100.00;99400.87;1687710;84;20974;-70
2022/08/31 04:06:11;;;;;;;8.38;5.03;;;;;;;14.32;100.00;99403.75;1696512;83;21141;-71
2022/08/31 04:08:48;;;;;;;8.78;5.55;;;;;;;14.35;100.00;99407.78;1638170;86;21074;-74
2022/08/31 04:11:41;;;;;;;16.17;5.50;;;;;;;14.35;100.00;99407.20;1706133;83;20930;-70
2022/08/31 04:14:26;;;;;;;10.68;5.65;;;;;;;14.38;100.00;99407.89;1716400;81;21140;-73
2022/08/31 04:17:02;;;;;;;8.78;5.17;;;;;;;14.42;100.00;99415.75;1683291;83;21458;-72
2022/08/31 04:19:33;;;;;;;19.42;7.10;;;;;;;14.49;100.00;99417.34;1712448;82;20929;-71
2022/08/31 04:22:02;;;;;;;14.83;5.95;;;;;;;14.56;100.00;99414.58;1695058;83;21583;-72
2022/08/31 04:24:29;;;;;;;7.92;5.67;;;;;;;14.62;100.00;99413.20;1668814;84;21061;-70
2022/08/31 04:26:55;;;;;;;13.53;6.20;;;;;;;14.68;100.00;99415.96;1639430;87;21658;-73
2022/08/31 04:29:22;;;;;;;13.28;6.17;;;;;;;14.74;100.00;99413.20;1651628;86;20911;-73
2022/08/31 04:31:49;;;;;;;12.18;5.97;;;;;;;14.82;100.00;99419.18;1636178;85;21544;-71
2022/08/31 04:34:15;;;;;;;12.93;6.35;;;;;;;14.90;100.00;99419.64;1679415;84;20935;-71
2022/08/31 04:36:47;;;;;;;8.78;5.47;;;;;;;14.97;100.00;99414.91;1676419;85;20966;-72
2022/08/31 04:39:11;;;;;;;10.28;6.40;;;;;;;15.04;100.00;99416.48;1679588;84;21134;-71
2022/08/31 04:41:39;;;;;;;10.32;5.30;;;;;;;15.12;100.00;99414.97;1642006;85;21063;-71
2022/08/31 04:44:06;;;;;;;8.98;5.55;;;;;;;15.19;100.00;99420.70;1642186;87;21492;-73
2022/08/31 04:46:35;;;;;;;10.32;5.12;;;;;;;15.23;100.00;99418.62;1651204;84;20983;-72
2022/08/31 04:49:02;;;;;;;9.43;4.55;;;;;;;15.30;100.00;99416.08;1685301;83;20990;-72
2022/08/31 04:51:30;;;;;;;9.28;5.37;;;;;;;15.39;100.00;99418.93;1684515;84;21600;-71
2022/08/31 04:54:16;;;;;;;8.63;5.30;;;;;;;15.44;100.00;99417.30;1690808;84;21438;-71
2022/08/31 05:04:51;;;;;;;16.57;8.78;;;;;;;15.71;100.00;99414.89;1663931;86;20931;-70
2022/08/31 05:08:32;;;;;;;19.10;8.40;;;;;;;15.81;100.00;99415.77;1669228;86;21471;-69
2022/08/31 05:15:23;;;;;;;20.50;10.35;;;;;;;16.07;100.00;99423.59;1669225;86;20888;-76
2022/08/31 05:18:45;;;;;;;;;;;;;;;16.19;100.00;99429.84;1715929;81;20887;-70
2022/08/31 05:25:33;;;;;;;43.60;8.75;;;;;;;16.44;100.00;99430.48;1725654;81;21048;-74
2022/08/31 05:28:36;;;;;;;12.98;6.83;;;;;;;16.68;98.98;99428.13;1699531;82;20924;-73
2022/08/31 05:35:22;;;;;;;12.70;5.20;;;;;;;16.83;98.03;99421.73;1734847;82;20883;-71
2022/08/31 05:38:26;;;;;;;12.20;5.60;;;;;;;16.94;97.32;99418.41;1711235;82;20900;-72
2022/08/31 05:48:54;;;;;;;10.28;4.20;;;;;;;17.33;95.28;99415.90;1715529;82;20876;-71
2022/08/31 05:59:23;;;;;;;8.20;4.00;;;;;;;17.68;93.44;99415.88;1710108;82;21619;-75
2022/08/31 06:09:50;;;;;;;9.18;4.03;;;;;;;18.23;91.13;99408.73;1672770;84;21021;-73
2022/08/31 06:13:00;;;;;;;10.25;5.00;;;;;;;18.40;90.10;99413.80;1676778;84;21002;-73
2022/08/31 06:19:48;;;;;;;7.58;2.95;;;;;;;18.78;88.41;99408.09;1670490;84;20911;-73
2022/08/31 06:22:54;;;;;;;11.20;3.98;;;;;;;18.97;87.12;99415.53;1675649;84;21046;-73
2022/08/31 06:32:40;;;;;;;3.80;2.67;;;;;;;19.63;86.33;99408.47;1667443;84;21103;-70
2022/08/31 06:42:51;;;;;;;8.55;2.30;;;;;;;20.31;81.17;99404.96;1637162;82;21078;-74
2022/08/31 06:53:26;;;;;;;15.60;7.28;;;;;;;20.59;77.45;99415.59;1718011;82;20914;-72
2022/08/31 06:57:08;;;;;;;10.60;3.50;;;;;;;20.81;75.74;99411.76;1715487;82;20974;-71
2022/08/31 07:04:04;;;;;;;4.37;1.95;;;;;;;20.99;74.04;99422.45;1712439;82;20888;-69
2022/08/31 07:07:45;;;;;;;6.67;2.15;;;;;;;21.14;73.94;99416.38;1715258;82;20884;-69
2022/08/31 07:14:36;;;;;;;5.45;1.50;;;;;;;21.57;71.61;99420.79;1703468;84;20893;-70
2022/08/31 07:17:41;;;;;;;8.35;2.67;;;;;;;21.69;71.36;99421.23;1722766;82;21023;-71
2022/08/31 07:21:29;;;;;;;6.10;3.12;;;;;;;21.87;71.16;99429.69;1715063;82;20880;-71
2022/08/31 07:25:11;;;;;;;4.33;2.25;;;;;;;22.02;69.88;99418.76;1710151;82;20932;-70
2022/08/31 07:31:58;;;;;;;7.83;2.20;;;;;;;22.20;66.49;99418.00;1728740;82;20946;-72
2022/08/31 07:35:45;;;;;;;2.85;1.57;;;;;;;22.12;65.72;99419.98;1721657;82;21029;-70
2022/08/31 07:42:36;;;;;;;3.65;1.90;;;;;;;21.77;67.25;99415.08;1711524;82;21792;-70
2022/08/31 07:45:40;;;;;;;11.10;1.87;;;;;;;22.21;67.32;99413.41;1712058;82;21471;-70
2022/08/31 07:56:00;;;;;;;13.80;1.85;;;;;;;22.95;62.25;99414.63;1699484;82;21039;-71
2022/08/31 08:05:52;;;;;;;2.22;1.30;;;;;;;23.30;59.92;99403.93;1727746;82;20924;-69
2022/08/31 08:16:41;;;;;;;4.55;1.35;;;;;;;24.69;58.30;99396.92;1717735;82;20466;-71
2022/08/31 08:27:14;;;;;;;3.45;1.12;;;;;;;25.20;54.07;99391.02;1709089;82;21330;-75
2022/08/31 08:30:26;;;;;;;3.70;1.07;;;;;;;25.50;52.95;99387.43;1705431;83;20896;-73
2022/08/31 08:43:54;;;;;;;3.85;2.20;;;;;;;24.35;53.89;99390.58;1729596;81;21459;-73
2022/08/31 08:54:42;;;;;;;7.20;3.72;;;;;;;25.16;54.49;99377.62;1711025;82;20090;-72
2022/08/31 08:57:45;;;;;;;9.30;3.47;;;;;;;25.26;53.72;99389.34;1719486;82;20922;-70
2022/08/31 09:00:49;;;;;;;12.95;6.53;;;;;;;24.69;54.27;99386.50;1722983;82;20989;-72
2022/08/31 09:11:34;;;;;;;6.25;2.22;;;;;;;23.65;57.96;99381.42;1695361;82;20884;-80
2022/08/31 09:22:14;;;;;;;9.95;1.92;;;;;;;24.88;53.55;99376.67;1727062;82;21078;-76
2022/08/31 09:32:59;;;;;;;4.55;2.55;;;;;;;24.29;54.45;99377.41;1707425;83;20999;-75
2022/08/31 09:36:40;;;;;;;6.95;2.95;;;;;;;24.24;53.35;99375.83;1662661;84;21015;-75
2022/08/31 09:43:37;;;;;;;7.17;1.55;;;;;;;24.77;54.43;99370.39;1698331;81;21244;-73
2022/08/31 09:47:20;;;;;;;2.25;1.20;;;;;;;25.07;53.50;99370.30;1715834;82;20880;-74
2022/08/31 09:51:01;;;;;;;2.45;1.47;;;;;;;25.57;51.37;99359.23;1703799;82;20924;-75
2022/08/31 10:05:30;;;;;;;4.62;1.60;;;;;;;26.50;48.73;99362.92;1733194;82;20927;-74
2022/08/31 10:08:45;;;;;;;8.20;1.20;;;;;;;26.40;49.27;99364.69;1706279;82;20941;-79
2022/08/31 10:19:19;;;;;;;1.50;1.10;;;;;;;27.67;44.96;99350.03;1731727;82;21250;-76
2022/08/31 10:28:59;;;;;;;6.30;2.27;;;;;;;28.59;41.37;99345.79;1714494;82;20938;-77
2022/08/31 10:31:44;;;;;;;5.00;1.82;;;;;;;28.68;39.45;99338.72;1714077;82;20926;-77
2022/08/31 10:37:08;;;;;;;3.27;1.35;;;;;;;28.93;39.71;99336.03;1698020;82;20923;-81
2022/08/31 10:39:43;;;;;;;2.22;1.00;;;;;;;29.19;38.80;99327.03;1685368;84;20923;-76
2022/08/31 10:42:28;;;;;;;2.67;1.02;;;;;;;29.41;38.63;99317.31;1690573;82;21125;-76
2022/08/31 10:45:03;;;;;;;6.67;1.40;;;;;;;29.24;38.95;99325.86;1689386;83;21003;-79
2022/08/31 10:47:30;;;;;;;3.95;1.80;;;;;;;28.78;39.28;99326.34;1690960;84;21229;-76
2022/08/31 10:49:58;;;;;;;7.15;1.37;;;;;;;28.35;39.73;99332.30;1703534;82;21029;-75
2022/08/31 10:52:34;;;;;;;2.60;1.05;;;;;;;28.02;39.03;99318.16;1714819;82;20888;-75
2022/08/31 10:55:36;;;;;;;3.17;0.90;;;;;;;27.67;39.41;99328.88;1714295;83;20947;-75
2022/08/31 10:58:34;;;;;;;3.22;1.17;;;;;;;27.43;38.76;99330.36;1661789;84;20994;-75
2022/08/31 11:01:33;;;;;;;7.05;1.22;;;;;;;27.00;40.24;99330.45;1672763;84;21266;-76
2022/08/31 11:04:47;;;;;;;8.60;1.40;;;;;;;26.50;43.00;99329.16;1663585;85;20995;-75
2022/08/31 11:07:31;;;;;;;4.45;1.47;;;;;;;26.23;45.21;99341.22;1713919;82;20856;-74
2022/08/31 11:10:21;;;;;;;3.45;1.30;;;;;;;25.98;46.08;99340.83;1670809;84;21391;-75
2022/08/31 11:12:56;;;;;;;4.87;1.40;;;;;;;25.73;47.00;99347.42;1719222;83;20879;-75
2022/08/31 11:15:48;;;;;;;3.60;1.40;;;;;;;25.91;48.05;99346.56;1690924;83;21277;-74
2022/08/31 11:19:06;;;;;;;4.20;1.45;;;;;;;26.45;47.09;99340.89;1711695;82;20919;-74
2022/08/31 11:22:09;;;;;;;2.05;1.50;;;;;;;26.89;47.10;99346.72;1721777;82;21502;-74
2022/08/31 11:25:23;;;;;;;1.40;1.02;;;;;;;26.87;46.25;99345.75;1711420;82;21534;-74
2022/08/31 11:28:33;;;;;;;7.05;1.72;;;;;;;26.87;47.06;99334.48;1701087;82;21421;-75
2022/08/31 11:31:22;;;;;;;2.45;1.67;;;;;;;27.34;46.29;99336.39;1729566;82;21324;-75
2022/08/31 11:33:53;;;;;;;5.00;1.80;;;;;;;27.32;46.05;99337.45;1688896;84;20892;-75
2022/08/31 11:36:50;;;;;;;4.42;1.30;;;;;;;27.29;46.01;99338.49;1724951;81;21037;-75
2022/08/31 11:39:37;;;;;;;7.62;1.30;;;;;;;27.28;45.41;99346.77;1702779;82;20900;-76
2022/08/31 11:42:22;;;;;;;2.52;1.32;;;;;;;27.30;43.61;99342.11;1703327;81;20856;-75
2022/08/31 11:45:25;;;;;;;5.97;1.20;;;;;;;27.36;43.51;99333.94;1718098;80;21749;-75
2022/08/31 11:47:55;;;;;;;7.70;2.05;;;;;;;27.60;44.08;99329.22;1715332;81;20991;-76
2022/08/31 11:50:28;;;;;;;4.23;1.63;;;;;;;28.01;43.73;99327.86;1698971;82;20983;-75
2022/08/31 11:53:00;;;;;;;3.85;1.30;;;;;;;28.32;43.95;99326.12;1703288;83;20936;-76
2022/08/31 11:55:50;;;;;;;11.15;1.85;;;;;;;28.50;42.30;99324.44;1712668;82;21566;-75
2022/08/31 11:58:24;;;;;;;2.55;1.20;;;;;;;28.11;42.52;99322.58;1711380;82;21224;-75
2022/08/31 12:01:17;;;;;;;3.55;1.12;;;;;;;27.55;43.79;99314.80;1721654;81;20977;-75
2022/08/31 12:03:57;;;;;;;4.72;1.42;;;;;;;27.46;44.65;99309.75;1724180;82;20883;-75
2022/08/31 12:06:28;;;;;;;5.33;1.30;;;;;;;27.73;43.66;99305.98;1683421;83;21479;-73
2022/08/31 12:09:22;;;;;;;3.08;1.27;;;;;;;27.94;42.95;99311.10;1750169;79;20943;-74
2022/08/31 12:12:14;;;;;;;1.10;0.98;;;;;;;28.00;41.07;99302.91;1710318;83;21214;-76
2022/08/31 12:14:56;;;;;;;4.60;1.25;;;;;;;28.04;41.09;99300.19;1703287;84;20928;-75
2022/08/31 12:18:03;;;;;;;6.65;1.22;;;;;;;28.19;39.89;99299.22;1724197;82;21553;-75
2022/08/31 12:24:04;;;;;;;5.85;1.20;;;;;;;27.80;40.38;99300.95;1705141;82;21043;-75
2022/08/31 12:27:01;;;;;;;4.03;0.98;;;;;;;27.68;40.89;99298.83;1726982;82;21108;-76
2022/08/31 12:29:35;;;;;;;10.55;1.22;;;;;;;28.02;39.46;99294.80;1704003;82;20916;-77
2022/08/31 12:32:28;;;;;;;9.40;1.12;;;;;;;28.07;39.68;99295.07;1721685;82;20987;-73
2022/08/31 12:35:21;;;;;;;3.55;1.22;;;;;;;28.11;39.53;99297.19;1714058;82;21550;-74
2022/08/31 12:38:06;;;;;;;4.12;1.00;;;;;;;27.86;39.81;99300.60;1706957;82;20948;-75
2022/08/31 12:40:55;;;;;;;1.22;0.80;;;;;;;27.74;39.95;99296.27;1705165;82;21415;-74
2022/08/31 12:43:27;;;;;;;5.20;1.00;;;;;;;27.65;40.09;99305.97;1672370;83;21044;-74
2022/08/31 12:46:08;;;;;;;2.72;0.98;;;;;;;27.52;41.37;99300.97;1711847;83;21039;-75
2022/08/31 12:48:55;;;;;;;2.80;1.05;;;;;;;27.47;40.91;99302.89;1681374;85;20957;-72
2022/08/31 12:51:58;;;;;;;4.30;1.25;;;;;;;27.23;42.06;99307.03;1680561;85;20990;-74
2022/08/31 12:54:55;;;;;;;5.05;1.25;;;;;;;26.94;42.04;99308.20;1685176;84;21876;-79
2022/08/31 12:57:46;;;;;;;3.40;1.40;;;;;;;26.61;41.84;99315.05;1678818;85;20947;-78
2022/08/31 13:00:30;;;;;;;2.12;1.10;;;;;;;26.10;42.39;99319.12;1683274;84;20995;-76
2022/08/31 13:03:06;;;;;;;1.40;1.25;;;;;;;25.66;42.42;99323.81;1686031;84;21050;-73
2022/08/31 13:05:36;;;;;;;2.75;1.67;;;;;;;25.38;43.58;99321.38;1686346;84;21082;-74
2022/08/31 13:08:22;;;;;;;11.40;1.82;;;;;;;25.39;43.53;99315.14;1689468;84;21225;-73
2022/08/31 13:10:51;;;;;;;2.17;1.32;;;;;;;25.58;44.45;99315.86;1689362;84;21038;-72
2022/08/31 13:13:25;;;;;;;1.80;1.40;;;;;;;26.08;43.52;99306.09;1694562;84;21034;-72
2022/08/31 13:15:59;;;;;;;6.42;2.00;;;;;;;26.71;42.81;99311.06;1713553;83;21580;-76
2022/08/31 13:18:27;;;;;;;7.70;2.10;;;;;;;27.34;41.61;99294.91;1706472;83;20999;-74
2022/08/31 13:21:04;;;;;;;3.50;1.60;;;;;;;27.74;41.12;99294.23;1713996;83;22013;-73
2022/08/31 13:23:30;;;;;;;3.37;1.40;;;;;;;27.97;41.02;99299.56;1715731;83;21650;-73
2022/08/31 13:26:12;;;;;;;1.82;1.30;;;;;;;27.88;40.08;99311.45;1720247;83;20939;-72
2022/08/31 13:28:40;;;;;;;12.03;1.60;;;;;;;27.46;41.13;99310.38;1719135;83;21556;-71
2022/08/31 13:31:10;;;;;;;1.95;1.37;;;;;;;27.06;41.25;99316.66;1714232;82;20911;-71
2022/08/31 13:33:41;;;;;;;8.05;1.67;;;;;;;26.61;42.45;99317.06;1711486;82;21135;-72
2022/08/31 13:36:30;;;;;;;3.40;1.40;;;;;;;26.14;43.21;99319.06;1679927;84;21059;-73
2022/08/31 13:39:14;;;;;;;3.33;1.72;;;;;;;25.82;44.09;99323.19;1707175;82;20972;-72
2022/08/31 13:41:45;;;;;;;1.72;1.20;;;;;;;25.49;43.64;99323.41;1686926;82;20899;-73
2022/08/31 13:44:12;;;;;;;6.28;1.50;;;;;;;25.14;43.95;99330.29;1715790;83;20971;-73
2022/08/31 13:46:44;;;;;;;2.08;1.50;;;;;;;24.86;44.91;99336.19;1708430;82;21189;-73
2022/08/31 13:49:31;;;;;;;11.00;1.67;;;;;;;24.66;44.95;99338.81;1710285;83;21047;-73
2022/08/31 13:51:59;;;;;;;8.58;5.20;;;;;;;24.48;45.83;99335.38;1690052;83;20947;-73
2022/08/31 13:54:32;;;;;;;9.50;3.60;;;;;;;24.46;45.76;99336.39;1710309;83;21515;-73
2022/08/31 13:57:19;;;;;;;13.22;5.78;;;;;;;24.42;45.54;99330.02;1718164;83;21022;-73
2022/08/31 13:59:47;;;;;;;15.20;9.65;;;;;;;24.46;46.36;99322.37;1709222;82;21147;-74
2022/08/31 14:02:26;;;;;;;14.65;9.50;;;;;;;24.62;45.69;99326.83;1700790;83;21002;-74
2022/08/31 14:05:03;;;;;;;12.53;4.78;;;;;;;24.73;45.51;99327.52;1686952;84;20978;-74
2022/08/31 14:07:42;;;;;;;3.85;2.10;;;;;;;24.80;45.22;99332.27;1675974;85;20991;-74
2022/08/31 14:10:21;;;;;;;39.90;21.40;;;;;;;24.83;44.93;99328.63;1680734;83;21435;-73
2022/08/31 14:13:16;;;;;;;57.38;28.45;;;;;;;24.96;44.97;99333.30;1677041;84;21242;-74
2022/08/31 14:15:56;;;;;;;4.85;2.55;;;;;;;24.95;45.38;99330.87;1674794;85;20920;-89
2022/08/31 14:18:38;;;;;;;14.75;1.70;;;;;;;25.17;45.72;99322.43;1685463;84;21004;-79
2022/08/31 14:21:14;;;;;;;6.55;2.45;;;;;;;25.81;45.58;99319.39;1691498;84;21205;-79
2022/08/31 14:23:54;;;;;;;6.95;2.98;;;;;;;26.27;43.66;99321.46;1678828;83;21015;-88
2022/08/31 14:26:27;;;;;;;23.05;10.88;;;;;;;26.32;42.59;99321.01;1693739;82;21125;-80
2022/08/31 14:28:59;;;;;;;37.88;19.90;;;;;;;26.35;42.99;99326.39;1692052;83;20899;-77
2022/08/31 14:31:47;;;;;;;38.80;13.93;;;;;;;26.26;42.99;99324.89;1699887;84;20979;-74
2022/08/31 14:34:21;;;;;;;28.12;15.53;;;;;;;26.18;42.56;99321.20;1697638;84;21543;-73
2022/08/31 14:37:18;;;;;;;13.55;8.55;;;;;;;25.99;42.37;99317.91;1712395;82;20899;-74
2022/08/31 14:39:44;;;;;;;26.42;11.78;;;;;;;25.59;42.90;99333.71;1702031;82;21576;-74
2022/08/31 14:42:18;;;;;;;17.10;9.15;;;;;;;25.15;43.83;99332.48;1709736;82;20900;-73
2022/08/31 14:44:52;;;;;;;22.40;12.65;;;;;;;24.77;43.94;99335.91;1708834;82;20900;-74
2022/08/31 14:47:21;;;;;;;14.73;7.03;;;;;;;24.43;44.97;99338.63;1700745;84;20989;-74
2022/08/31 14:49:49;;;;;;;6.40;2.80;;;;;;;24.29;46.39;99339.53;1696033;83;21401;-74
2022/08/31 14:52:16;;;;;;;5.67;1.72;;;;;;;24.18;46.56;99324.19;1684944;83;21154;-73
2022/08/31 14:54:43;;;;;;;20.68;7.08;;;;;;;24.14;46.81;99327.63;1688540;83;21064;-74
2022/08/31 14:57:14;;;;;;;31.82;11.15;;;;;;;24.09;46.61;99329.47;1691540;83;21082;-73
2022/08/31 14:59:42;;;;;;;20.70;5.85;;;;;;;23.92;46.58;99321.98;1712812;82;21064;-74
2022/08/31 15:02:12;;;;;;;9.28;4.03;;;;;;;23.79;47.06;99322.27;1696001;83;21022;-74
2022/08/31 15:04:39;;;;;;;66.65;21.87;;;;;;;23.66;47.54;99317.16;1699205;84;21248;-74
2022/08/31 15:07:06;;;;;;;21.48;8.00;;;;;;;23.52;47.75;99312.20;1685794;83;21057;-74
2022/08/31 15:09:34;;;;;;;24.32;10.65;;;;;;;23.48;48.52;99320.63;1701976;82;21054;-75
2022/08/31 15:12:01;;;;;;;17.73;6.92;;;;;;;23.53;48.45;99314.63;1715425;82;20910;-73
2022/08/31 15:14:29;;;;;;;19.10;8.40;;;;;;;23.56;48.40;99311.02;1725169;82;21568;-75
2022/08/31 15:17:01;;;;;;;13.38;6.67;;;;;;;23.59;47.87;99308.00;1727508;82;21860;-76
2022/08/31 15:19:33;;;;;;;34.13;17.95;;;;;;;23.62;46.47;99311.38;1719027;82;21039;-75
2022/08/31 15:22:05;;;;;;;18.15;7.37;;;;;;;23.48;46.72;99302.42;1720029;82;21063;-76
2022/08/31 15:24:31;;;;;;;17.75;7.37;;;;;;;23.31;46.93;99306.10;1684152;83;21530;-77
2022/08/31 15:26:58;;;;;;;7.60;2.83;;;;;;;23.16;47.50;99303.16;1666492;86;21518;-75
2022/08/31 15:29:27;;;;;;;14.40;5.62;;;;;;;23.04;48.07;99309.44;1666507;86;21831;-78
2022/08/31 15:31:57;;;;;;;26.35;10.53;;;;;;;22.99;47.92;99311.85;1666349;86;21051;-75
2022/08/31 15:34:29;;;;;;;20.20;9.28;;;;;;;22.92;48.21;99308.47;1666493;84;21047;-79
2022/08/31 15:37:03;;;;;;;30.88;13.48;;;;;;;22.83;48.26;99312.29;1665300;84;21062;-75
2022/08/31 15:39:39;;;;;;;22.45;10.35;;;;;;;22.73;48.50;99308.88;1663180;85;20990;-72
2022/08/31 15:42:10;;;;;;;6.97;3.47;;;;;;;22.64;49.33;99319.09;1711848;82;21233;-71
2022/08/31 15:44:42;;;;;;;24.80;11.48;;;;;;;22.52;48.72;99304.75;1709706;82;21033;-71